createdAt,value
2023-10-23T00:00:56.240Z,1002.65
2023-10-23T00:01:56.135Z,1002.66
2023-10-23T00:02:56.204Z,1002.69
2023-10-23T00:03:56.346Z,1002.66
2023-10-23T00:04:56.289Z,1002.68
2023-10-23T00:05:56.122Z,1002.71
2023-10-23T00:06:56.123Z,1002.71
2023-10-23T00:07:56.117Z,1002.74
2023-10-23T00:08:56.121Z,1002.70
2023-10-23T00:09:56.110Z,1002.72
2023-10-23T00:10:56.112Z,1002.70
2023-10-23T00:11:56.108Z,1002.76
2023-10-23T00:12:56.106Z,1002.69
2023-10-23T00:13:56.100Z,1002.70
2023-10-23T00:14:56.126Z,1002.72
2023-10-23T00:15:56.092Z,1002.70
2023-10-23T00:16:56.132Z,1002.71
2023-10-23T00:17:56.102Z,1002.72
2023-10-23T00:18:56.282Z,1002.72
2023-10-23T00:19:56.087Z,1002.75
2023-10-23T00:20:56.082Z,1002.77
2023-10-23T00:21:56.077Z,1002.80
2023-10-23T00:22:56.074Z,1002.82
2023-10-23T00:23:56.081Z,1002.84
2023-10-23T00:24:56.115Z,1002.78
2023-10-23T00:25:56.063Z,1002.83
2023-10-23T00:26:56.064Z,1002.81
2023-10-23T00:27:56.096Z,1002.82
2023-10-23T00:28:56.061Z,1002.85
2023-10-23T00:29:56.054Z,1002.84
2023-10-23T00:30:56.171Z,1002.90
2023-10-23T00:31:56.054Z,1002.87
2023-10-23T00:32:56.134Z,1002.90
2023-10-23T00:33:56.177Z,1002.94
2023-10-23T00:34:56.037Z,1002.92
2023-10-23T00:35:56.034Z,1002.94
2023-10-23T00:36:56.072Z,1002.95
2023-10-23T00:37:56.030Z,1002.96
2023-10-23T00:38:56.043Z,1002.99
2023-10-23T00:39:56.066Z,1003.01
2023-10-23T00:40:56.026Z,1002.98
2023-10-23T00:41:56.017Z,1002.99
2023-10-23T00:42:56.072Z,1002.97
2023-10-23T00:43:56.014Z,1002.95
2023-10-23T00:44:56.007Z,1003.00
2023-10-23T00:45:56.144Z,1003.01
2023-10-23T00:46:56.040Z,1003.01
2023-10-23T00:47:56.017Z,1003.01
2023-10-23T00:48:56.039Z,1002.99
2023-10-23T00:49:56.004Z,1003.01
2023-10-23T00:50:56.012Z,1002.99
2023-10-23T00:51:56.027Z,1003.02
2023-10-23T00:52:55.990Z,1002.97
2023-10-23T00:53:55.986Z,1002.99
2023-10-23T00:54:56.052Z,1002.97
2023-10-23T00:55:55.983Z,1002.96
2023-10-23T00:56:55.985Z,1002.96
2023-10-23T00:57:55.996Z,1002.99
2023-10-23T00:58:55.974Z,1002.99
2023-10-23T00:59:55.999Z,1003.01
2023-10-23T01:00:56.106Z,1003.00
2023-10-23T01:01:55.978Z,1003.00
2023-10-23T01:02:55.986Z,1002.99
2023-10-23T01:03:56.011Z,1003.01
2023-10-23T01:04:55.963Z,1003.01
2023-10-23T01:05:55.971Z,1002.95
2023-10-23T01:06:56.032Z,1002.94
2023-10-23T01:07:55.963Z,1002.95
2023-10-23T01:08:56.012Z,1002.91
2023-10-23T01:09:56.008Z,1002.93
2023-10-23T01:10:55.974Z,1002.93
2023-10-23T01:11:55.954Z,1002.94
2023-10-23T01:12:55.977Z,1003.01
2023-10-23T01:13:55.959Z,1003.00
2023-10-23T01:14:55.947Z,1002.99
2023-10-23T01:15:55.945Z,1003.00
2023-10-23T01:16:56.000Z,1002.98
2023-10-23T01:17:55.985Z,1002.99
2023-10-23T01:18:55.972Z,1002.97
2023-10-23T01:19:55.940Z,1003.03
2023-10-23T01:20:55.940Z,1003.03
2023-10-23T01:21:55.963Z,1003.01
2023-10-23T01:22:55.933Z,1003.02
2023-10-23T01:23:55.926Z,1003.01
2023-10-23T01:24:56.001Z,1003.00
2023-10-23T01:25:55.954Z,1003.02
2023-10-23T01:26:55.928Z,1002.98
2023-10-23T01:27:55.919Z,1002.99
2023-10-23T01:28:55.918Z,1002.98
2023-10-23T01:29:55.920Z,1003.00
2023-10-23T01:30:55.999Z,1003.00
2023-10-23T01:31:55.914Z,1003.00
2023-10-23T01:32:55.950Z,1003.01
2023-10-23T01:33:55.932Z,1003.01
2023-10-23T01:34:55.907Z,1003.06
2023-10-23T01:35:55.903Z,1003.03
2023-10-23T01:36:55.979Z,1003.01
2023-10-23T01:37:55.899Z,1002.98
2023-10-23T01:38:55.892Z,1002.98
2023-10-23T01:39:55.900Z,1002.99
2023-10-23T01:40:55.922Z,1002.96
2023-10-23T01:41:55.887Z,1003.02
2023-10-23T01:42:55.943Z,1003.02
2023-10-23T01:43:55.880Z,1003.00
2023-10-23T01:44:55.880Z,1003.00
2023-10-23T01:45:55.945Z,1003.01
2023-10-23T01:46:55.873Z,1003.01
2023-10-23T01:47:55.908Z,1003.01
2023-10-23T01:48:55.938Z,1003.04
2023-10-23T01:49:55.865Z,1003.06
2023-10-23T01:50:55.863Z,1003.05
2023-10-23T01:51:55.909Z,1003.07
2023-10-23T01:52:55.861Z,1003.06
2023-10-23T01:53:55.859Z,1003.11
2023-10-23T01:54:55.905Z,1003.10
2023-10-23T01:55:55.850Z,1003.09
2023-10-23T01:56:55.856Z,1003.05
2023-10-23T01:57:55.879Z,1003.12
2023-10-23T01:58:55.852Z,1003.12
2023-10-23T01:59:55.842Z,1003.12
2023-10-23T02:00:55.877Z,1003.09
2023-10-23T02:02:55.935Z,1003.09
2023-10-23T02:03:55.912Z,1003.11
2023-10-23T02:04:55.835Z,1003.11
2023-10-23T02:05:55.829Z,1003.12
2023-10-23T02:06:55.852Z,1003.13
2023-10-23T02:07:55.822Z,1003.14
2023-10-23T02:08:55.822Z,1003.13
2023-10-23T02:09:55.862Z,1003.13
2023-10-23T02:10:55.815Z,1003.15
2023-10-23T02:11:55.808Z,1003.17
2023-10-23T02:12:55.847Z,1003.16
2023-10-23T02:13:55.808Z,1003.17
2023-10-23T02:14:55.816Z,1003.21
2023-10-23T02:15:55.877Z,1003.24
2023-10-23T02:16:55.799Z,1003.25
2023-10-23T02:17:55.848Z,1003.26
2023-10-23T02:18:55.860Z,1003.28
2023-10-23T02:19:55.821Z,1003.30
2023-10-23T02:20:55.793Z,1003.30
2023-10-23T02:21:55.816Z,1003.26
2023-10-23T02:22:55.792Z,1003.29
2023-10-23T02:23:57.184Z,1003.32
2023-10-23T02:24:55.831Z,1003.32
2023-10-23T02:25:55.779Z,1003.31
2023-10-23T02:26:55.777Z,1003.30
2023-10-23T02:27:55.836Z,1003.29
2023-10-23T02:28:55.771Z,1003.28
2023-10-23T02:29:55.783Z,1003.27
2023-10-23T02:30:55.846Z,1003.29
2023-10-23T02:31:55.765Z,1003.34
2023-10-23T02:32:55.791Z,1003.30
2023-10-23T02:33:55.840Z,1003.31
2023-10-23T02:34:55.783Z,1003.31
2023-10-23T02:35:55.760Z,1003.34
2023-10-23T02:36:55.808Z,1003.34
2023-10-23T02:37:55.754Z,1003.33
2023-10-23T02:38:55.754Z,1003.33
2023-10-23T02:39:55.854Z,1003.35
2023-10-23T02:40:55.753Z,1003.37
2023-10-23T02:41:55.750Z,1003.38
2023-10-23T02:42:55.760Z,1003.38
2023-10-23T02:43:55.745Z,1003.42
2023-10-23T02:44:55.747Z,1003.42
2023-10-23T02:45:55.802Z,1003.41
2023-10-23T02:46:55.784Z,1003.44
2023-10-23T02:47:55.783Z,1003.43
2023-10-23T02:48:55.780Z,1003.42
2023-10-23T02:49:55.745Z,1003.44
2023-10-23T02:50:55.742Z,1003.42
2023-10-23T02:51:55.748Z,1003.45
2023-10-23T02:52:55.729Z,1003.49
2023-10-23T02:53:55.727Z,1003.45
2023-10-23T02:54:55.837Z,1003.49
2023-10-23T02:55:55.722Z,1003.49
2023-10-23T02:56:55.733Z,1003.50
2023-10-23T02:57:55.798Z,1003.47
2023-10-23T02:58:55.722Z,1003.47
2023-10-23T02:59:55.713Z,1003.51
2023-10-23T03:00:55.722Z,1003.48
2023-10-23T03:01:55.739Z,1003.52
2023-10-23T03:02:55.780Z,1003.50
2023-10-23T03:03:55.879Z,1003.47
2023-10-23T03:04:55.708Z,1003.47
2023-10-23T03:05:55.702Z,1003.48
2023-10-23T03:06:55.729Z,1003.51
2023-10-23T03:07:55.698Z,1003.51
2023-10-23T03:08:55.689Z,1003.50
2023-10-23T03:09:55.742Z,1003.47
2023-10-23T03:10:55.685Z,1003.46
2023-10-23T03:11:55.686Z,1003.46
2023-10-23T03:12:55.701Z,1003.47
2023-10-23T03:13:55.677Z,1003.46
2023-10-23T03:14:55.689Z,1003.50
2023-10-23T03:15:55.817Z,1003.49
2023-10-23T03:16:55.693Z,1003.51
2023-10-23T03:17:55.699Z,1003.50
2023-10-23T03:18:55.793Z,1003.47
2023-10-23T03:19:55.666Z,1003.46
2023-10-23T03:20:55.680Z,1003.48
2023-10-23T03:21:55.713Z,1003.45
2023-10-23T03:22:55.651Z,1003.45
2023-10-23T03:23:55.766Z,1003.42
2023-10-23T03:24:55.705Z,1003.45
2023-10-23T03:25:55.648Z,1003.46
2023-10-23T03:26:55.648Z,1003.49
2023-10-23T03:27:55.733Z,1003.50
2023-10-23T03:28:55.642Z,1003.51
2023-10-23T03:29:55.638Z,1003.55
2023-10-23T03:30:55.680Z,1003.56
2023-10-23T03:31:55.646Z,1003.59
2023-10-23T03:32:55.696Z,1003.62
2023-10-23T03:33:55.703Z,1003.61
2023-10-23T03:34:55.623Z,1003.65
2023-10-23T03:35:55.632Z,1003.62
2023-10-23T03:36:55.624Z,1003.62
2023-10-23T03:37:55.617Z,1003.63
2023-10-23T03:38:55.615Z,1003.66
2023-10-23T03:39:55.750Z,1003.67
2023-10-23T03:40:55.608Z,1003.69
2023-10-23T03:41:55.658Z,1003.70
2023-10-23T03:42:55.668Z,1003.70
2023-10-23T03:43:55.606Z,1003.73
2023-10-23T03:44:55.601Z,1003.72
2023-10-23T03:45:55.705Z,1003.76
2023-10-23T03:46:55.652Z,1003.76
2023-10-23T03:47:55.615Z,1003.78
2023-10-23T03:48:55.635Z,1003.81
2023-10-23T03:49:55.587Z,1003.78
2023-10-23T03:50:55.586Z,1003.80
2023-10-23T03:51:55.646Z,1003.81
2023-10-23T03:52:55.583Z,1003.77
2023-10-23T03:53:55.579Z,1003.75
2023-10-23T03:54:55.603Z,1003.77
2023-10-23T03:55:55.582Z,1003.77
2023-10-23T03:56:55.570Z,1003.76
2023-10-23T03:57:55.587Z,1003.70
2023-10-23T03:58:55.568Z,1003.72
2023-10-23T03:59:55.564Z,1003.73
2023-10-23T04:00:55.664Z,1003.69
2023-10-23T04:01:55.561Z,1003.71
2023-10-23T04:02:55.559Z,1003.65
2023-10-23T04:03:55.651Z,1003.66
2023-10-23T04:04:55.719Z,1003.65
2023-10-23T04:05:55.551Z,1003.65
2023-10-23T04:06:55.622Z,1003.70
2023-10-23T04:07:55.545Z,1003.72
2023-10-23T04:08:55.549Z,1003.74
2023-10-23T04:09:55.629Z,1003.75
2023-10-23T04:10:55.543Z,1003.75
2023-10-23T04:11:55.547Z,1003.73
2023-10-23T04:12:55.559Z,1003.69
2023-10-23T04:13:55.530Z,1003.68
2023-10-23T04:14:55.532Z,1003.69
2023-10-23T04:15:55.763Z,1003.69
2023-10-23T04:16:55.530Z,1003.68
2023-10-23T04:17:55.633Z,1003.70
2023-10-23T04:18:55.569Z,1003.71
2023-10-23T04:19:55.527Z,1003.70
2023-10-23T04:20:55.523Z,1003.73
2023-10-23T04:21:55.613Z,1003.69
2023-10-23T04:22:55.519Z,1003.70
2023-10-23T04:23:55.533Z,1003.73
2023-10-23T04:24:55.599Z,1003.69
2023-10-23T04:25:55.515Z,1003.70
2023-10-23T04:26:55.523Z,1003.68
2023-10-23T04:27:55.571Z,1003.69
2023-10-23T04:28:55.506Z,1003.72
2023-10-23T04:29:55.506Z,1003.72
2023-10-23T04:30:55.547Z,1003.68
2023-10-23T04:31:55.571Z,1003.67
2023-10-23T04:32:55.516Z,1003.66
2023-10-23T04:33:55.515Z,1003.67
2023-10-23T04:34:55.554Z,1003.70
2023-10-23T04:35:55.497Z,1003.70
2023-10-23T04:36:55.573Z,1003.71
2023-10-23T04:37:55.504Z,1003.77
2023-10-23T04:38:55.489Z,1003.76
2023-10-23T04:39:55.621Z,1003.77
2023-10-23T04:40:55.489Z,1003.78
2023-10-23T04:41:55.484Z,1003.76
2023-10-23T04:42:55.545Z,1003.80
2023-10-23T04:43:55.516Z,1003.75
2023-10-23T04:44:55.481Z,1003.77
2023-10-23T04:45:55.563Z,1003.73
2023-10-23T04:46:55.545Z,1003.70
2023-10-23T04:47:55.507Z,1003.74
2023-10-23T04:48:55.567Z,1003.74
2023-10-23T04:49:55.472Z,1003.76
2023-10-23T04:50:55.481Z,1003.75
2023-10-23T04:51:55.505Z,1003.72
2023-10-23T04:52:55.463Z,1003.78
2023-10-23T04:53:55.462Z,1003.77
2023-10-23T04:54:55.502Z,1003.79
2023-10-23T04:55:55.458Z,1003.76
2023-10-23T04:56:55.485Z,1003.76
2023-10-23T04:57:55.572Z,1003.75
2023-10-23T04:58:55.490Z,1003.74
2023-10-23T04:59:55.460Z,1003.76
2023-10-23T05:00:55.611Z,1003.76
2023-10-23T05:01:55.507Z,1003.75
2023-10-23T05:02:55.467Z,1003.75
2023-10-23T05:03:55.597Z,1003.79
2023-10-23T05:04:55.480Z,1003.79
2023-10-23T05:05:55.439Z,1003.78
2023-10-23T05:06:55.456Z,1003.79
2023-10-23T05:07:55.450Z,1003.76
2023-10-23T05:08:55.441Z,1003.79
2023-10-23T05:09:55.488Z,1003.82
2023-10-23T05:10:55.427Z,1003.83
2023-10-23T05:11:55.465Z,1003.80
2023-10-23T05:12:55.513Z,1003.84
2023-10-23T05:13:55.449Z,1003.88
2023-10-23T05:14:55.424Z,1003.89
2023-10-23T05:15:55.481Z,1003.91
2023-10-23T05:16:55.443Z,1003.92
2023-10-23T05:17:55.455Z,1003.87
2023-10-23T05:18:55.454Z,1003.88
2023-10-23T05:19:55.430Z,1003.86
2023-10-23T05:20:55.412Z,1003.85
2023-10-23T05:21:55.483Z,1003.84
2023-10-23T05:22:55.417Z,1003.82
2023-10-23T05:23:55.407Z,1003.82
2023-10-23T05:24:55.472Z,1003.81
2023-10-23T05:25:55.404Z,1003.85
2023-10-23T05:26:55.400Z,1003.85
2023-10-23T05:27:55.657Z,1003.87
2023-10-23T05:28:55.482Z,1003.91
2023-10-23T05:29:56.057Z,1003.91
2023-10-23T05:30:55.410Z,1003.89
2023-10-23T05:31:55.467Z,1003.93
2023-10-23T05:32:55.397Z,1003.95
2023-10-23T05:33:55.410Z,1003.94
2023-10-23T05:34:55.377Z,1003.97
2023-10-23T05:35:55.374Z,1004.00
2023-10-23T05:36:55.485Z,1003.95
2023-10-23T05:37:55.378Z,1003.93
2023-10-23T05:38:55.402Z,1003.89
2023-10-23T05:39:55.397Z,1003.93
2023-10-23T05:40:55.364Z,1003.88
2023-10-23T05:41:55.382Z,1003.87
2023-10-23T05:42:55.400Z,1003.88
2023-10-23T05:43:55.365Z,1003.87
2023-10-23T05:44:55.352Z,1003.87
2023-10-23T05:46:55.492Z,1003.90
2023-10-23T05:47:55.493Z,1003.92
2023-10-23T05:48:55.386Z,1003.92
2023-10-23T05:49:55.381Z,1003.89
2023-10-23T05:50:55.379Z,1003.91
2023-10-23T05:51:55.497Z,1003.94
2023-10-23T05:52:55.435Z,1003.91
2023-10-23T05:53:55.438Z,1003.89
2023-10-23T05:54:55.496Z,1003.89
2023-10-23T05:55:55.427Z,1003.89
2023-10-23T05:56:55.418Z,1003.89
2023-10-23T05:57:56.669Z,1003.90
2023-10-23T05:58:56.633Z,1003.86
2023-10-23T05:59:55.420Z,1003.85
2023-10-23T06:00:55.682Z,1003.87
2023-10-23T06:01:55.667Z,1003.92
2023-10-23T06:02:55.363Z,1003.92
2023-10-23T06:03:55.484Z,1003.95
2023-10-23T06:04:55.419Z,1003.95
2023-10-23T06:05:55.454Z,1003.97
2023-10-23T06:06:55.480Z,1003.95
2023-10-23T06:07:55.342Z,1003.99
2023-10-23T06:08:55.319Z,1004.01
2023-10-23T06:09:55.347Z,1003.99
2023-10-23T06:10:55.374Z,1004.02
2023-10-23T06:11:55.380Z,1003.97
2023-10-23T06:12:55.441Z,1003.96
2023-10-23T06:13:55.306Z,1004.04
2023-10-23T06:14:55.350Z,1003.98
2023-10-23T06:15:55.397Z,1004.02
2023-10-23T06:16:55.390Z,1004.05
2023-10-23T06:17:55.341Z,1004.07
2023-10-23T06:18:55.282Z,1004.10
2023-10-23T06:19:55.288Z,1004.09
2023-10-23T06:20:55.328Z,1004.07
2023-10-23T06:21:55.393Z,1004.05
2023-10-23T06:22:56.502Z,1003.99
2023-10-23T06:23:55.272Z,1004.01
2023-10-23T06:24:55.406Z,1003.98
2023-10-23T06:25:55.265Z,1004.01
2023-10-23T06:26:55.265Z,1004.02
2023-10-23T06:27:55.366Z,1004.04
2023-10-23T06:28:55.257Z,1004.04
2023-10-23T06:29:55.334Z,1004.06
2023-10-23T06:30:55.373Z,1004.06
2023-10-23T06:31:55.274Z,1004.10
2023-10-23T06:32:55.385Z,1004.10
2023-10-23T06:33:55.400Z,1004.12
2023-10-23T06:35:55.553Z,1004.11
2023-10-23T06:36:55.378Z,1004.07
2023-10-23T06:38:55.345Z,1004.10
2023-10-23T06:39:55.331Z,1004.07
2023-10-23T06:40:55.333Z,1004.10
2023-10-23T06:41:55.328Z,1004.07
2023-10-23T06:42:55.294Z,1004.14
2023-10-23T06:43:55.533Z,1004.16
2023-10-23T06:44:55.301Z,1004.22
2023-10-23T06:46:01.144Z,1004.18
2023-10-23T06:46:55.358Z,1004.20
2023-10-23T06:48:55.322Z,1004.19
2023-10-23T06:49:55.234Z,1004.20
2023-10-23T06:50:55.310Z,1004.18
2023-10-23T06:51:55.370Z,1004.18
2023-10-23T06:52:55.313Z,1004.19
2023-10-23T06:54:55.318Z,1004.22
2023-10-23T06:55:55.387Z,1004.21
2023-10-23T06:56:55.368Z,1004.21
2023-10-23T06:57:55.286Z,1004.21
2023-10-23T06:58:55.292Z,1004.26
2023-10-23T06:59:55.341Z,1004.25
2023-10-23T07:00:55.668Z,1004.26
2023-10-23T07:01:55.368Z,1004.24
2023-10-23T07:02:55.366Z,1004.25
2023-10-23T07:03:55.332Z,1004.26
2023-10-23T07:04:55.312Z,1004.27
2023-10-23T07:05:55.341Z,1004.24
2023-10-23T07:06:55.294Z,1004.25
2023-10-23T07:07:55.179Z,1004.25
2023-10-23T07:08:55.258Z,1004.22
2023-10-23T07:09:55.195Z,1004.17
2023-10-23T07:10:55.499Z,1004.21
2023-10-23T07:11:55.198Z,1004.17
2023-10-23T07:12:56.336Z,1004.17
2023-10-23T07:13:55.271Z,1004.19
2023-10-23T07:14:55.218Z,1004.21
2023-10-23T07:15:55.224Z,1004.16
2023-10-23T07:16:55.220Z,1004.17
2023-10-23T07:17:55.207Z,1004.15
2023-10-23T07:18:55.261Z,1004.13
2023-10-23T07:20:55.372Z,1004.14
2023-10-23T07:21:55.272Z,1004.14
2023-10-23T07:22:55.262Z,1004.16
2023-10-23T07:23:55.301Z,1004.08
2023-10-23T07:24:55.265Z,1004.14
2023-10-23T07:25:55.284Z,1004.13
2023-10-23T07:26:55.232Z,1004.16
2023-10-23T07:27:55.240Z,1004.15
2023-10-23T07:28:55.145Z,1004.17
2023-10-23T07:29:55.281Z,1004.20
2023-10-23T07:30:55.228Z,1004.22
2023-10-23T07:31:55.192Z,1004.22
2023-10-23T07:32:55.216Z,1004.23
2023-10-23T07:33:55.176Z,1004.24
2023-10-23T07:34:55.226Z,1004.25
2023-10-23T07:35:55.189Z,1004.26
2023-10-23T07:36:55.141Z,1004.23
2023-10-23T07:37:55.128Z,1004.26
2023-10-23T07:38:55.133Z,1004.22
2023-10-23T07:39:55.127Z,1004.26
2023-10-23T07:40:55.121Z,1004.25
2023-10-23T07:41:55.125Z,1004.22
2023-10-23T07:42:55.115Z,1004.28
2023-10-23T07:43:55.106Z,1004.25
2023-10-23T07:44:55.102Z,1004.25
2023-10-23T07:46:04.092Z,1004.28
2023-10-23T07:46:55.253Z,1004.31
2023-10-23T07:47:55.180Z,1004.26
2023-10-23T07:48:55.224Z,1004.28
2023-10-23T07:49:55.088Z,1004.28
2023-10-23T07:50:55.117Z,1004.26
2023-10-23T07:51:55.088Z,1004.25
2023-10-23T07:52:55.079Z,1004.23
2023-10-23T07:53:55.081Z,1004.22
2023-10-23T07:54:55.120Z,1004.22
2023-10-23T07:55:55.086Z,1004.23
2023-10-23T07:56:55.075Z,1004.23
2023-10-23T07:57:55.083Z,1004.22
2023-10-23T07:58:55.069Z,1004.23
2023-10-23T07:59:55.071Z,1004.24
2023-10-23T08:00:55.174Z,1004.20
2023-10-23T08:01:55.157Z,1004.21
2023-10-23T08:02:55.111Z,1004.24
2023-10-23T08:03:55.170Z,1004.21
2023-10-23T08:04:55.132Z,1004.20
2023-10-23T08:05:55.059Z,1004.21
2023-10-23T08:06:55.070Z,1004.19
2023-10-23T08:07:55.055Z,1004.20
2023-10-23T08:08:55.050Z,1004.20
2023-10-23T08:09:55.079Z,1004.27
2023-10-23T08:10:55.053Z,1004.24
2023-10-23T08:11:55.064Z,1004.24
2023-10-23T08:12:55.065Z,1004.25
2023-10-23T08:13:55.084Z,1004.24
2023-10-23T08:14:55.072Z,1004.19
2023-10-23T08:15:57.351Z,1004.19
2023-10-23T08:16:55.125Z,1004.18
2023-10-23T08:17:55.247Z,1004.13
2023-10-23T08:18:55.206Z,1004.14
2023-10-23T08:19:55.101Z,1004.16
2023-10-23T08:20:55.044Z,1004.15
2023-10-23T08:21:55.089Z,1004.18
2023-10-23T08:22:55.038Z,1004.19
2023-10-23T08:23:55.039Z,1004.18
2023-10-23T08:24:55.058Z,1004.20
2023-10-23T08:25:55.070Z,1004.22
2023-10-23T08:26:55.033Z,1004.13
2023-10-23T08:27:55.060Z,1004.21
2023-10-23T08:29:02.765Z,1004.18
2023-10-23T08:29:55.070Z,1004.19
2023-10-23T08:30:55.099Z,1004.14
2023-10-23T08:31:55.100Z,1004.18
2023-10-23T08:32:55.111Z,1004.18
2023-10-23T08:33:55.165Z,1004.21
2023-10-23T08:34:55.019Z,1004.18
2023-10-23T08:35:55.025Z,1004.22
2023-10-23T08:36:55.092Z,1004.17
2023-10-23T08:37:55.076Z,1004.19
2023-10-23T08:38:55.018Z,1004.16
2023-10-23T08:40:55.523Z,1004.15
2023-10-23T08:41:55.022Z,1004.13
2023-10-23T08:42:55.041Z,1004.16
2023-10-23T08:43:55.022Z,1004.14
2023-10-23T08:44:55.022Z,1004.15
2023-10-23T08:45:55.068Z,1004.16
2023-10-23T08:46:55.046Z,1004.16
2023-10-23T08:47:55.034Z,1004.16
2023-10-23T08:48:55.090Z,1004.14
2023-10-23T08:49:55.004Z,1004.11
2023-10-23T08:50:55.011Z,1004.12
2023-10-23T08:51:55.012Z,1004.13
2023-10-23T08:52:55.017Z,1004.12
2023-10-23T08:54:09.436Z,1004.12
2023-10-23T08:54:55.025Z,1004.07
2023-10-23T08:55:54.997Z,1004.07
2023-10-23T08:56:54.998Z,1004.06
2023-10-23T08:57:55.060Z,1004.02
2023-10-23T08:58:55.000Z,1004.00
2023-10-23T08:59:54.995Z,1004.00
2023-10-23T09:00:55.079Z,1004.00
2023-10-23T09:02:00.015Z,1003.99
2023-10-23T09:02:55.024Z,1004.00
2023-10-23T09:04:03.277Z,1003.95
2023-10-23T09:04:55.133Z,1003.98
2023-10-23T09:05:55.187Z,1003.95
2023-10-23T09:06:55.066Z,1003.92
2023-10-23T09:07:54.987Z,1003.94
2023-10-23T09:08:54.987Z,1003.93
2023-10-23T09:09:54.999Z,1003.88
2023-10-23T09:10:54.988Z,1003.93
2023-10-23T09:11:54.983Z,1003.90
2023-10-23T09:12:54.997Z,1003.90
2023-10-23T09:13:55.039Z,1003.92
2023-10-23T09:14:54.988Z,1003.90
2023-10-23T09:15:55.064Z,1003.83
2023-10-23T09:16:55.228Z,1003.87
2023-10-23T09:17:55.062Z,1003.90
2023-10-23T09:18:55.016Z,1003.90
2023-10-23T09:19:54.972Z,1003.87
2023-10-23T09:20:55.009Z,1003.91
2023-10-23T09:21:55.075Z,1003.92
2023-10-23T09:22:54.981Z,1003.91
2023-10-23T09:23:55.145Z,1003.88
2023-10-23T09:24:54.992Z,1003.86
2023-10-23T09:25:54.972Z,1003.87
2023-10-23T09:26:54.985Z,1003.88
2023-10-23T09:27:55.006Z,1003.88
2023-10-23T09:28:54.971Z,1003.91
2023-10-23T09:29:54.969Z,1003.97
2023-10-23T09:30:55.034Z,1004.07
2023-10-23T09:31:55.220Z,1004.18
2023-10-23T09:32:55.172Z,1004.25
2023-10-23T09:33:55.019Z,1004.24
2023-10-23T09:34:55.001Z,1004.28
2023-10-23T09:35:54.972Z,1004.25
2023-10-23T09:36:55.144Z,1004.22
2023-10-23T09:37:54.973Z,1004.27
2023-10-23T09:38:54.972Z,1004.28
2023-10-23T09:39:55.029Z,1004.24
2023-10-23T09:40:54.978Z,1004.18
2023-10-23T09:41:54.981Z,1004.20
2023-10-23T09:42:55.007Z,1004.26
2023-10-23T09:43:54.979Z,1004.23
2023-10-23T09:44:54.984Z,1004.24
2023-10-23T09:45:54.995Z,1004.27
2023-10-23T09:46:55.070Z,1004.24
2023-10-23T09:47:55.023Z,1004.32
2023-10-23T09:48:57.711Z,1004.26
2023-10-23T09:49:55.190Z,1004.33
2023-10-23T09:50:56.049Z,1004.27
2023-10-23T09:51:55.035Z,1004.30
2023-10-23T09:52:55.000Z,1004.30
2023-10-23T09:53:55.009Z,1004.31
2023-10-23T09:54:56.123Z,1004.32
2023-10-23T09:55:55.014Z,1004.33
2023-10-23T09:56:55.134Z,1004.31
2023-10-23T09:57:55.087Z,1004.15
2023-10-23T09:58:55.027Z,1004.20
2023-10-23T09:59:55.033Z,1004.22
2023-10-23T10:00:57.359Z,1004.16
2023-10-23T10:01:55.257Z,1004.18
2023-10-23T10:02:55.236Z,1004.21
2023-10-23T10:03:55.212Z,1004.21
2023-10-23T10:04:55.089Z,1004.21
2023-10-23T10:05:55.133Z,1004.20
2023-10-23T10:06:56.457Z,1004.19
2023-10-23T10:07:55.106Z,1004.08
2023-10-23T10:08:55.097Z,1004.02
2023-10-23T10:09:55.167Z,1004.03
2023-10-23T10:10:55.190Z,1003.95
2023-10-23T10:12:40.955Z,1003.83
2023-10-23T10:13:37.525Z,1003.80
2023-10-23T10:14:37.532Z,1003.83
2023-10-23T10:15:37.545Z,1003.84
2023-10-23T10:16:37.615Z,1003.82
2023-10-23T10:17:37.557Z,1003.86
2023-10-23T10:18:37.543Z,1003.74
2023-10-23T10:19:37.755Z,1003.78
2023-10-23T10:20:37.555Z,1003.75
2023-10-23T10:21:37.560Z,1003.73
2023-10-23T10:22:37.559Z,1003.75
2023-10-23T10:23:37.568Z,1003.71
2023-10-23T10:24:37.567Z,1003.68
2023-10-23T10:25:37.576Z,1003.69
2023-10-23T10:26:37.571Z,1003.62
2023-10-23T10:27:37.584Z,1003.67
2023-10-23T10:28:37.620Z,1003.65
2023-10-23T10:29:37.673Z,1003.59
2023-10-23T10:30:37.669Z,1003.63
2023-10-23T10:31:37.743Z,1003.65
2023-10-23T10:34:22.831Z,1003.59
2023-10-23T10:34:26.904Z,1003.63
2023-10-23T10:34:37.871Z,1003.62
2023-10-23T10:35:41.520Z,1003.61
2023-10-23T10:36:45.409Z,1003.58
2023-10-23T10:37:37.611Z,1003.56
2023-10-23T10:38:37.630Z,1003.50
2023-10-23T10:39:37.831Z,1003.54
2023-10-23T10:40:37.625Z,1003.47
2023-10-23T10:41:37.621Z,1003.49
2023-10-23T10:42:37.623Z,1003.44
2023-10-23T10:43:37.657Z,1003.43
2023-10-23T10:44:37.706Z,1003.43
2023-10-23T10:45:37.626Z,1003.40
2023-10-23T10:46:37.736Z,1003.43
2023-10-23T10:47:37.635Z,1003.40
2023-10-23T10:48:37.631Z,1003.38
2023-10-23T10:49:37.814Z,1003.38
2023-10-23T10:50:37.634Z,1003.42
2023-10-23T10:51:37.651Z,1003.39
2023-10-23T10:52:37.641Z,1003.35
2023-10-23T10:53:37.656Z,1003.36
2023-10-23T10:54:37.638Z,1003.30
2023-10-23T10:55:37.652Z,1003.28
2023-10-23T10:56:37.648Z,1003.29
2023-10-23T10:57:37.662Z,1003.32
2023-10-23T10:58:37.646Z,1003.30
2023-10-23T10:59:37.756Z,1003.30
2023-10-23T11:00:37.671Z,1003.35
2023-10-23T11:01:37.799Z,1003.29
2023-10-23T11:02:37.698Z,1003.24
2023-10-23T11:03:37.763Z,1003.21
2023-10-23T11:04:37.724Z,1003.21
2023-10-23T11:05:37.664Z,1003.16
2023-10-23T11:06:37.664Z,1003.09
2023-10-23T11:07:37.674Z,1003.09
2023-10-23T11:08:38.888Z,1003.06
2023-10-23T11:09:37.791Z,1003.02
2023-10-23T11:10:37.671Z,1003.01
2023-10-23T11:11:37.676Z,1003.02
2023-10-23T11:12:37.671Z,1002.98
2023-10-23T11:13:37.698Z,1002.95
2023-10-23T11:14:37.676Z,1002.94
2023-10-23T11:15:37.681Z,1002.89
2023-10-23T11:16:37.743Z,1002.87
2023-10-23T11:17:37.726Z,1002.90
2023-10-23T11:18:37.693Z,1002.88
2023-10-23T11:19:37.862Z,1002.90
2023-10-23T11:20:38.312Z,1002.91
2023-10-23T11:21:37.692Z,1002.96
2023-10-23T11:22:37.690Z,1002.92
2023-10-23T11:23:37.694Z,1002.91
2023-10-23T11:24:37.698Z,1002.92
2023-10-23T11:25:37.696Z,1002.95
2023-10-23T11:26:37.701Z,1002.93
2023-10-23T11:27:37.703Z,1002.93
2023-10-23T11:28:37.701Z,1002.90
2023-10-23T11:29:37.770Z,1002.93
2023-10-23T11:30:37.722Z,1002.89
2023-10-23T11:31:37.761Z,1002.87
2023-10-23T11:32:37.741Z,1002.86
2023-10-23T11:33:37.720Z,1002.88
2023-10-23T11:34:37.716Z,1002.86
2023-10-23T11:35:37.725Z,1002.85
2023-10-23T11:36:37.723Z,1002.83
2023-10-23T11:37:37.722Z,1002.82
2023-10-23T11:38:37.721Z,1002.82
2023-10-23T11:39:37.862Z,1002.81
2023-10-23T11:40:37.717Z,1002.83
2023-10-23T11:41:37.734Z,1002.77
2023-10-23T11:42:37.722Z,1002.78
2023-10-23T11:43:37.726Z,1002.77
2023-10-23T11:44:37.741Z,1002.70
2023-10-23T11:45:37.729Z,1002.70
2023-10-23T11:46:37.793Z,1002.65
2023-10-23T11:47:37.749Z,1002.65
2023-10-23T11:48:37.735Z,1002.66
2023-10-23T11:49:37.862Z,1002.67
2023-10-23T11:50:37.751Z,1002.67
2023-10-23T11:51:37.738Z,1002.68
2023-10-23T11:52:37.738Z,1002.68
2023-10-23T11:53:37.741Z,1002.65
2023-10-23T11:54:37.742Z,1002.64
2023-10-23T11:55:37.764Z,1002.67
2023-10-23T11:56:37.746Z,1002.63
2023-10-23T11:57:37.745Z,1002.61
2023-10-23T11:58:37.764Z,1002.59
2023-10-23T11:59:37.951Z,1002.56
2023-10-23T12:00:37.753Z,1002.56
2023-10-23T12:01:37.828Z,1002.52
2023-10-23T12:02:37.788Z,1002.53
2023-10-23T12:03:38.020Z,1002.55
2023-10-23T12:04:37.921Z,1002.58
2023-10-23T12:05:37.858Z,1002.55
2023-10-23T12:06:37.884Z,1002.56
2023-10-23T12:07:37.883Z,1002.56
2023-10-23T12:08:37.901Z,1002.55
2023-10-23T12:09:38.062Z,1002.53
2023-10-23T12:10:37.808Z,1002.52
2023-10-23T12:11:37.876Z,1002.47
2023-10-23T12:12:37.931Z,1002.45
2023-10-23T12:13:37.889Z,1002.48
2023-10-23T12:14:38.471Z,1002.44